Time;durP1;ratioP1;P1;durP2;ratioP2;P2;SDS_P1;SDS_P2;PMS_P1;PMS_P2;Temp;Humidity;BMP_temperature;BMP_pressure;BME280_temperature;BME280_humidity;BME280_pressure;Samples;Min_cycle;Max_cycle;Signal;HPM_P1;HPM_P2
2022/09/03 00:00:55;;;;;;;3.75;1.35;;;;;;;;;;4980816;28;20118;-73
2022/09/03 00:03:29;;;;;;;3.05;1.30;;;;;;;;;;4980926;28;20030;-73
2022/09/03 00:06:02;;;;;;;2.50;1.15;;;;;;;;;;4976540;28;20039;-74
2022/09/03 00:08:46;;;;;;;3.00;1.00;;;;;;;;;;4979796;28;20038;-74
2022/09/03 00:11:26;;;;;;;5.35;1.20;;;;;;;;;;4975304;28;20030;-73
2022/09/03 00:13:52;;;;;;;3.22;1.23;;;;;;;;;;4975149;28;20034;-73
2022/09/03 00:16:21;;;;;;;2.80;0.88;;;;;;;;;;4979191;28;20032;-73
2022/09/03 00:18:56;;;;;;;3.97;0.95;;;;;;;;;;4978670;28;20392;-73
2022/09/03 00:21:36;;;;;;;1.73;0.90;;;;;;;;;;4981033;28;20113;-73
2022/09/03 00:24:04;;;;;;;2.67;1.05;;;;;;;;;;4978309;28;20066;-73
2022/09/03 00:26:34;;;;;;;3.08;0.77;;;;;;;;;;4976979;28;20049;-73
2022/09/03 00:29:07;;;;;;;2.47;0.90;;;;;;;;;;4981280;28;20030;-74
2022/09/03 00:31:46;;;;;;;2.42;0.93;;;;;;;;;;4980239;28;20326;-73
2022/09/03 00:34:25;;;;;;;3.15;0.90;;;;;;;;;;4978637;28;20061;-73
2022/09/03 00:36:52;;;;;;;3.25;1.05;;;;;;;;;;4978125;28;20498;-73
2022/09/03 00:39:20;;;;;;;3.10;1.13;;;;;;;;;;4976008;28;20043;-73
2022/09/03 00:42:06;;;;;;;2.45;1.10;;;;;;;;;;4979744;28;20045;-73
2022/09/03 00:44:38;;;;;;;3.83;1.13;;;;;;;;;;4983254;28;20101;-73
2022/09/03 00:47:14;;;;;;;3.20;1.20;;;;;;;;;;4981933;28;20078;-73
2022/09/03 00:49:51;;;;;;;4.15;1.35;;;;;;;;;;4982514;28;20042;-73
2022/09/03 00:52:17;;;;;;;3.60;1.00;;;;;;;;;;4982154;28;20380;-73
2022/09/03 00:54:46;;;;;;;3.05;1.10;;;;;;;;;;4981309;28;20037;-73
2022/09/03 00:57:15;;;;;;;3.08;1.50;;;;;;;;;;4980764;28;20055;-73
2022/09/03 00:59:48;;;;;;;4.10;1.40;;;;;;;;;;4981473;28;20090;-73
2022/09/03 01:02:34;;;;;;;3.17;1.25;;;;;;;;;;4984467;28;20046;-73
2022/09/03 01:05:18;;;;;;;4.43;1.27;;;;;;;;;;4981488;28;20060;-73
2022/09/03 01:07:45;;;;;;;5.40;1.90;;;;;;;;;;4979221;28;20031;-73
2022/09/03 01:10:14;;;;;;;4.10;1.50;;;;;;;;;;4984250;28;20527;-73
2022/09/03 01:12:57;;;;;;;5.75;1.95;;;;;;;;;;4964621;28;20171;-73
2022/09/03 01:15:23;;;;;;;5.35;1.98;;;;;;;;;;4979694;28;20030;-73
2022/09/03 01:17:52;;;;;;;4.55;1.48;;;;;;;;;;4983163;28;20089;-73
2022/09/03 01:20:24;;;;;;;5.15;2.08;;;;;;;;;;4980391;28;20034;-73
2022/09/03 01:23:28;;;;;;;5.10;1.90;;;;;;;;;;4986744;28;20057;-73
2022/09/03 01:26:13;;;;;;;4.55;1.20;;;;;;;;;;4905176;29;20067;-73
2022/09/03 01:29:10;;;;;;;4.28;1.83;;;;;;;;;;4903223;29;20131;-73
2022/09/03 01:31:56;;;;;;;4.32;1.35;;;;;;;;;;4961694;28;20089;-73
2022/09/03 01:34:22;;;;;;;6.60;1.50;;;;;;;;;;4981915;28;20030;-73
2022/09/03 01:36:51;;;;;;;4.93;1.38;;;;;;;;;;4981006;28;20203;-73
2022/09/03 01:39:26;;;;;;;3.58;1.35;;;;;;;;;;4975538;28;20070;-73
2022/09/03 01:42:14;;;;;;;3.70;1.40;;;;;;;;;;4979048;28;20042;-73
2022/09/03 01:44:52;;;;;;;2.97;1.25;;;;;;;;;;4981661;28;20039;-73
2022/09/03 01:47:31;;;;;;;6.45;1.52;;;;;;;;;;4978709;28;20089;-74
2022/09/03 01:50:04;;;;;;;3.75;1.50;;;;;;;;;;4980296;28;20446;-73
2022/09/03 01:52:42;;;;;;;2.97;1.40;;;;;;;;;;4982017;28;20119;-73
2022/09/03 01:55:08;;;;;;;2.85;1.27;;;;;;;;;;4980397;28;20088;-73
2022/09/03 01:57:44;;;;;;;3.22;1.10;;;;;;;;;;4979601;28;20464;-73
2022/09/03 02:00:12;;;;;;;3.30;1.20;;;;;;;;;;4982614;28;20036;-73
2022/09/03 02:02:39;;;;;;;4.82;1.30;;;;;;;;;;4981443;28;20359;-73
2022/09/03 02:05:08;;;;;;;3.80;1.10;;;;;;;;;;4964898;28;20384;-73
2022/09/03 02:07:41;;;;;;;4.82;1.10;;;;;;;;;;4981018;28;20042;-74
2022/09/03 02:10:10;;;;;;;4.35;1.15;;;;;;;;;;4979952;28;20037;-73
2022/09/03 02:12:38;;;;;;;3.20;1.45;;;;;;;;;;4983629;28;20039;-73
2022/09/03 02:15:06;;;;;;;4.28;1.60;;;;;;;;;;4977499;28;20058;-73
2022/09/03 02:17:33;;;;;;;3.70;1.50;;;;;;;;;;4981819;28;20080;-73
2022/09/03 02:20:03;;;;;;;2.60;1.23;;;;;;;;;;4981435;28;20042;-73
2022/09/03 02:22:29;;;;;;;2.00;0.98;;;;;;;;;;4981259;28;20042;-73
2022/09/03 02:24:55;;;;;;;3.20;1.10;;;;;;;;;;4982691;28;20045;-73
2022/09/03 02:27:21;;;;;;;1.95;1.00;;;;;;;;;;4981139;28;20039;-73
2022/09/03 02:29:47;;;;;;;3.05;0.93;;;;;;;;;;4980001;28;20439;-73
2022/09/03 02:32:14;;;;;;;3.50;1.20;;;;;;;;;;4984260;28;20038;-73
2022/09/03 02:34:41;;;;;;;4.13;1.50;;;;;;;;;;4982130;28;20030;-73
2022/09/03 02:37:15;;;;;;;3.05;1.30;;;;;;;;;;4981154;28;20046;-73
2022/09/03 02:39:41;;;;;;;2.80;1.08;;;;;;;;;;4982947;28;20034;-73
2022/09/03 02:42:08;;;;;;;3.75;0.82;;;;;;;;;;4980606;28;20046;-73
2022/09/03 02:44:36;;;;;;;2.72;1.20;;;;;;;;;;4965141;28;20030;-73
2022/09/03 02:47:04;;;;;;;3.03;1.10;;;;;;;;;;4980499;28;20054;-73
2022/09/03 02:49:30;;;;;;;5.53;1.33;;;;;;;;;;4979585;28;20066;-73
2022/09/03 02:52:00;;;;;;;3.22;1.50;;;;;;;;;;4982513;28;20530;-73
2022/09/03 02:54:32;;;;;;;4.75;1.73;;;;;;;;;;4981757;28;20030;-73
2022/09/03 02:56:58;;;;;;;3.73;1.77;;;;;;;;;;4980798;28;20223;-74
2022/09/03 02:59:27;;;;;;;3.05;1.10;;;;;;;;;;4981902;28;20282;-73
2022/09/03 03:01:53;;;;;;;2.60;1.27;;;;;;;;;;4981941;28;20077;-73
2022/09/03 03:04:19;;;;;;;2.22;1.20;;;;;;;;;;4976709;28;20035;-74
2022/09/03 03:06:45;;;;;;;4.13;1.48;;;;;;;;;;4981742;28;20138;-74
2022/09/03 03:09:11;;;;;;;4.00;1.55;;;;;;;;;;4979271;28;20121;-73
2022/09/03 03:11:39;;;;;;;6.72;1.35;;;;;;;;;;4980361;28;20487;-73
2022/09/03 03:14:05;;;;;;;6.70;1.45;;;;;;;;;;4981603;28;20027;-73
2022/09/03 03:16:31;;;;;;;5.25;1.00;;;;;;;;;;4981210;28;20026;-74
2022/09/03 03:18:58;;;;;;;3.60;1.30;;;;;;;;;;4980911;28;20035;-74
2022/09/03 03:21:24;;;;;;;3.65;1.30;;;;;;;;;;4982013;28;20130;-73
2022/09/03 03:23:51;;;;;;;3.10;1.40;;;;;;;;;;4977563;28;20058;-73
2022/09/03 03:26:17;;;;;;;2.25;1.02;;;;;;;;;;4981366;28;20034;-74
2022/09/03 03:28:45;;;;;;;2.63;1.00;;;;;;;;;;4981768;28;20038;-74
2022/09/03 03:31:16;;;;;;;3.47;1.08;;;;;;;;;;4982118;28;20026;-74
2022/09/03 03:33:42;;;;;;;2.53;1.00;;;;;;;;;;4979975;28;20030;-73
2022/09/03 03:36:10;;;;;;;5.93;1.30;;;;;;;;;;4981446;28;20273;-73
2022/09/03 03:38:36;;;;;;;4.70;1.20;;;;;;;;;;4979376;28;20133;-73
2022/09/03 03:41:14;;;;;;;2.03;1.00;;;;;;;;;;4981827;28;20092;-73
2022/09/03 03:43:40;;;;;;;1.95;1.00;;;;;;;;;;4981422;28;20145;-73
2022/09/03 03:46:06;;;;;;;2.83;1.00;;;;;;;;;;4979577;28;20061;-73
2022/09/03 03:48:33;;;;;;;2.78;1.10;;;;;;;;;;4981742;28;20070;-73
2022/09/03 03:51:03;;;;;;;3.03;0.90;;;;;;;;;;4979470;28;20034;-73
2022/09/03 03:53:33;;;;;;;3.90;1.10;;;;;;;;;;4980360;28;20038;-73
2022/09/03 03:56:00;;;;;;;6.70;1.48;;;;;;;;;;4981910;28;20026;-73
2022/09/03 03:58:27;;;;;;;3.72;1.27;;;;;;;;;;4979362;28;20049;-73
2022/09/03 04:00:53;;;;;;;7.55;1.05;;;;;;;;;;4977705;28;20432;-73
2022/09/03 04:03:19;;;;;;;2.10;0.90;;;;;;;;;;4981620;28;20499;-73
2022/09/03 04:05:59;;;;;;;3.25;1.15;;;;;;;;;;4979334;28;20443;-73
2022/09/03 04:08:25;;;;;;;4.70;1.00;;;;;;;;;;4980347;28;20049;-73
2022/09/03 04:10:52;;;;;;;2.80;1.20;;;;;;;;;;4976615;28;20031;-73
2022/09/03 04:13:18;;;;;;;2.85;1.10;;;;;;;;;;4977547;28;20062;-73
2022/09/03 04:15:44;;;;;;;4.22;1.30;;;;;;;;;;4977529;28;20612;-74
2022/09/03 04:18:10;;;;;;;3.95;1.02;;;;;;;;;;4979197;28;20030;-73
2022/09/03 04:20:37;;;;;;;5.07;1.20;;;;;;;;;;4984170;28;20729;-73
2022/09/03 04:23:03;;;;;;;2.72;1.10;;;;;;;;;;4985598;28;20042;-74
2022/09/03 04:25:30;;;;;;;3.80;1.27;;;;;;;;;;4986092;28;20065;-74
2022/09/03 04:27:56;;;;;;;5.57;1.40;;;;;;;;;;4985778;28;20076;-74
2022/09/03 04:30:22;;;;;;;4.93;1.25;;;;;;;;;;4986301;28;20061;-74
2022/09/03 04:32:54;;;;;;;2.40;0.93;;;;;;;;;;4984106;28;20041;-74
2022/09/03 04:35:21;;;;;;;3.95;1.08;;;;;;;;;;4984466;28;20023;-73
2022/09/03 04:37:48;;;;;;;3.58;1.30;;;;;;;;;;4983172;28;20042;-74
2022/09/03 04:40:14;;;;;;;2.65;1.13;;;;;;;;;;4983983;28;20092;-74
2022/09/03 04:42:40;;;;;;;3.42;1.00;;;;;;;;;;4984762;28;20061;-74
2022/09/03 04:45:07;;;;;;;2.72;1.30;;;;;;;;;;4984863;28;20041;-74
2022/09/03 04:47:35;;;;;;;3.58;1.10;;;;;;;;;;4978124;28;20146;-73
2022/09/03 04:50:02;;;;;;;3.22;1.00;;;;;;;;;;4982680;28;20524;-74
2022/09/03 04:52:30;;;;;;;2.60;1.13;;;;;;;;;;4983317;28;20063;-73
2022/09/03 04:54:56;;;;;;;2.22;1.20;;;;;;;;;;4982747;28;20061;-73
2022/09/03 04:57:22;;;;;;;2.67;1.25;;;;;;;;;;4983263;28;20352;-73
2022/09/03 04:59:48;;;;;;;3.78;1.42;;;;;;;;;;4983744;28;20034;-74
2022/09/03 05:02:14;;;;;;;2.85;1.30;;;;;;;;;;4983306;28;20042;-73
2022/09/03 05:04:41;;;;;;;5.28;1.45;;;;;;;;;;4984569;28;20438;-73
2022/09/03 05:07:07;;;;;;;4.28;1.30;;;;;;;;;;4978479;28;20037;-73
2022/09/03 05:09:33;;;;;;;2.80;1.10;;;;;;;;;;4983559;28;20038;-74
2022/09/03 05:11:59;;;;;;;2.97;1.08;;;;;;;;;;4984648;28;20027;-73
2022/09/03 05:14:25;;;;;;;2.58;1.05;;;;;;;;;;4983250;28;20468;-74
2022/09/03 05:16:51;;;;;;;6.25;1.58;;;;;;;;;;4982185;28;20153;-74
2022/09/03 05:19:17;;;;;;;2.63;1.25;;;;;;;;;;4982932;28;20033;-73
2022/09/03 05:21:43;;;;;;;2.72;1.13;;;;;;;;;;4980058;28;20039;-73
2022/09/03 05:24:10;;;;;;;3.70;1.27;;;;;;;;;;4986098;28;20070;-74
2022/09/03 05:26:37;;;;;;;4.70;1.20;;;;;;;;;;4984735;28;20034;-74
2022/09/03 05:29:07;;;;;;;4.85;1.30;;;;;;;;;;4980624;28;20109;-73
2022/09/03 05:31:34;;;;;;;3.67;1.02;;;;;;;;;;4984240;28;20507;-73
2022/09/03 05:34:01;;;;;;;2.58;0.95;;;;;;;;;;4981845;28;20042;-73
2022/09/03 05:36:28;;;;;;;3.95;1.02;;;;;;;;;;4981750;28;20026;-73
2022/09/03 05:38:55;;;;;;;1.40;0.73;;;;;;;;;;4985699;28;20042;-73
2022/09/03 05:41:21;;;;;;;4.28;0.75;;;;;;;;;;4986224;28;20030;-73
2022/09/03 05:43:53;;;;;;;3.22;1.30;;;;;;;;;;4982572;28;20039;-73
2022/09/03 05:46:19;;;;;;;3.50;0.90;;;;;;;;;;4982940;28;20054;-73
2022/09/03 05:48:46;;;;;;;2.53;0.98;;;;;;;;;;4978426;28;20049;-73
2022/09/03 05:51:13;;;;;;;2.42;1.10;;;;;;;;;;4982955;28;20030;-73
2022/09/03 05:53:40;;;;;;;2.30;0.90;;;;;;;;;;4982319;28;20974;-73
2022/09/03 05:56:16;;;;;;;3.00;0.95;;;;;;;;;;4981048;28;20068;-73
2022/09/03 05:58:44;;;;;;;3.17;1.23;;;;;;;;;;4979112;28;20043;-74
2022/09/03 06:01:14;;;;;;;5.95;1.17;;;;;;;;;;4980827;28;20034;-73
2022/09/03 06:03:40;;;;;;;5.72;1.55;;;;;;;;;;4964973;28;20085;-73
2022/09/03 06:06:07;;;;;;;3.78;0.90;;;;;;;;;;4986027;28;20045;-73
2022/09/03 06:08:33;;;;;;;3.15;1.08;;;;;;;;;;4980977;28;20060;-73
2022/09/03 06:11:00;;;;;;;3.88;1.15;;;;;;;;;;4983805;28;20110;-74
2022/09/03 06:13:26;;;;;;;3.03;1.10;;;;;;;;;;4981388;28;20034;-73
2022/09/03 06:15:59;;;;;;;4.05;1.27;;;;;;;;;;4982339;28;20479;-73
2022/09/03 06:18:26;;;;;;;3.80;1.10;;;;;;;;;;4975197;28;20117;-73
2022/09/03 06:20:56;;;;;;;2.90;1.05;;;;;;;;;;4977524;28;20483;-74
2022/09/03 06:23:22;;;;;;;3.10;1.05;;;;;;;;;;4977358;28;20038;-73
2022/09/03 06:25:48;;;;;;;7.68;1.23;;;;;;;;;;4979880;28;20421;-74
2022/09/03 06:28:14;;;;;;;5.85;1.40;;;;;;;;;;4978012;28;20042;-74
2022/09/03 06:30:40;;;;;;;4.05;1.10;;;;;;;;;;4977347;28;20538;-74
2022/09/03 06:33:07;;;;;;;3.10;1.02;;;;;;;;;;4979703;28;20061;-74
2022/09/03 06:35:33;;;;;;;2.20;0.98;;;;;;;;;;4981161;28;20058;-74
2022/09/03 06:37:59;;;;;;;3.08;1.10;;;;;;;;;;4980030;28;20554;-74
2022/09/03 06:40:25;;;;;;;5.32;1.50;;;;;;;;;;4978797;28;20033;-74
2022/09/03 06:43:02;;;;;;;4.63;1.10;;;;;;;;;;4983081;28;20502;-73
2022/09/03 06:45:29;;;;;;;8.18;1.55;;;;;;;;;;4981899;28;20125;-73
2022/09/03 06:47:55;;;;;;;4.47;1.73;;;;;;;;;;4981575;28;20245;-73
2022/09/03 06:50:21;;;;;;;6.05;1.48;;;;;;;;;;4981064;28;20058;-73
2022/09/03 06:52:52;;;;;;;4.85;1.65;;;;;;;;;;4976131;28;20042;-74
2022/09/03 06:55:18;;;;;;;8.23;1.98;;;;;;;;;;4977885;28;20030;-74
2022/09/03 06:57:44;;;;;;;12.00;2.60;;;;;;;;;;4970399;28;20038;-74
2022/09/03 07:00:10;;;;;;;12.10;4.18;;;;;;;;;;4979186;28;20483;-73
2022/09/03 07:02:38;;;;;;;6.93;2.08;;;;;;;;;;4981982;28;20074;-73
2022/09/03 07:05:04;;;;;;;7.32;1.98;;;;;;;;;;4980088;28;20053;-73
2022/09/03 07:07:30;;;;;;;4.90;1.90;;;;;;;;;;4979232;28;20637;-73
2022/09/03 07:09:56;;;;;;;5.30;1.63;;;;;;;;;;4967129;28;20037;-73
2022/09/03 07:12:22;;;;;;;4.75;1.50;;;;;;;;;;4983107;28;20038;-73
2022/09/03 07:14:49;;;;;;;6.60;1.40;;;;;;;;;;4975799;28;20030;-73
2022/09/03 07:17:15;;;;;;;3.42;1.33;;;;;;;;;;4981313;28;20109;-73
2022/09/03 07:19:41;;;;;;;3.03;1.20;;;;;;;;;;4978582;28;20038;-74
2022/09/03 07:22:09;;;;;;;2.42;1.10;;;;;;;;;;4974678;28;20357;-73
2022/09/03 07:24:36;;;;;;;2.50;1.00;;;;;;;;;;4980217;28;20034;-73
2022/09/03 07:27:04;;;;;;;5.50;1.30;;;;;;;;;;4978706;28;20038;-73
2022/09/03 07:29:30;;;;;;;4.90;1.30;;;;;;;;;;4978893;28;20699;-73
2022/09/03 07:31:56;;;;;;;3.97;1.70;;;;;;;;;;4977946;28;20442;-73
2022/09/03 07:34:25;;;;;;;4.05;1.33;;;;;;;;;;4980647;28;20791;-73
2022/09/03 07:36:52;;;;;;;4.60;1.30;;;;;;;;;;4980764;28;20038;-73
2022/09/03 07:39:19;;;;;;;2.83;1.25;;;;;;;;;;4980654;28;20093;-73
2022/09/03 07:41:45;;;;;;;4.30;1.10;;;;;;;;;;4979847;28;20492;-74
2022/09/03 07:44:14;;;;;;;3.97;1.13;;;;;;;;;;4979709;28;20030;-73
2022/09/03 07:46:40;;;;;;;2.72;0.85;;;;;;;;;;4980908;28;20058;-74
2022/09/03 07:49:06;;;;;;;2.67;0.98;;;;;;;;;;4980251;28;20042;-74
2022/09/03 07:51:34;;;;;;;3.13;1.00;;;;;;;;;;4973985;28;20077;-73
2022/09/03 07:54:01;;;;;;;2.50;1.00;;;;;;;;;;4978616;28;20058;-74
2022/09/03 07:56:30;;;;;;;1.85;0.73;;;;;;;;;;4976722;28;21419;-73
2022/09/03 07:58:56;;;;;;;4.72;0.90;;;;;;;;;;4976387;28;20054;-74
2022/09/03 08:01:23;;;;;;;3.47;1.13;;;;;;;;;;4980048;28;20113;-73
2022/09/03 08:03:50;;;;;;;2.50;1.33;;;;;;;;;;4974619;28;20039;-74
2022/09/03 08:06:17;;;;;;;5.78;1.08;;;;;;;;;;4972505;28;20034;-72
2022/09/03 08:08:44;;;;;;;2.35;1.00;;;;;;;;;;4978191;28;20049;-72
2022/09/03 08:11:19;;;;;;;1.77;1.00;;;;;;;;;;4976053;28;20041;-72
2022/09/03 08:13:47;;;;;;;3.03;1.08;;;;;;;;;;4980506;28;20034;-72
2022/09/03 08:16:14;;;;;;;3.10;0.98;;;;;;;;;;4978004;28;20030;-72
2022/09/03 08:18:40;;;;;;;2.28;0.80;;;;;;;;;;4971820;28;20125;-73
2022/09/03 08:21:08;;;;;;;4.32;0.90;;;;;;;;;;4980215;28;20130;-72
2022/09/03 08:23:38;;;;;;;5.10;1.00;;;;;;;;;;4961064;28;20055;-72
2022/09/03 08:26:05;;;;;;;3.80;1.05;;;;;;;;;;4972565;28;20421;-72
2022/09/03 08:28:33;;;;;;;1.70;0.80;;;;;;;;;;4970441;28;20058;-73
2022/09/03 08:30:59;;;;;;;8.82;1.05;;;;;;;;;;4974698;28;20026;-73
2022/09/03 08:33:37;;;;;;;4.22;1.02;;;;;;;;;;4974200;28;20113;-72
2022/09/03 08:36:06;;;;;;;2.22;0.80;;;;;;;;;;4975152;28;20035;-72
2022/09/03 08:38:33;;;;;;;2.22;0.85;;;;;;;;;;4975844;28;20030;-72
2022/09/03 08:41:03;;;;;;;2.63;1.10;;;;;;;;;;4977073;28;20514;-73
2022/09/03 08:43:29;;;;;;;3.10;1.15;;;;;;;;;;4973644;28;20084;-72
2022/09/03 08:45:58;;;;;;;5.95;1.50;;;;;;;;;;4977901;28;20039;-73
2022/09/03 08:48:24;;;;;;;3.50;0.88;;;;;;;;;;4978068;28;20069;-73
2022/09/03 08:50:57;;;;;;;3.22;0.85;;;;;;;;;;4977052;28;20030;-73
2022/09/03 08:53:23;;;;;;;3.65;0.93;;;;;;;;;;4979484;28;20041;-73
2022/09/03 08:55:51;;;;;;;3.53;1.00;;;;;;;;;;4978872;28;20034;-73
2022/09/03 08:58:19;;;;;;;6.53;1.17;;;;;;;;;;4973755;28;20559;-72
2022/09/03 09:01:03;;;;;;;1.98;1.00;;;;;;;;;;4977017;28;20080;-72
2022/09/03 09:03:43;;;;;;;2.70;0.90;;;;;;;;;;4976621;28;20455;-73
2022/09/03 09:06:31;;;;;;;5.22;1.02;;;;;;;;;;4980258;28;20038;-72
2022/09/03 09:09:06;;;;;;;2.20;0.80;;;;;;;;;;4982454;28;20045;-73
2022/09/03 09:11:32;;;;;;;2.70;0.90;;;;;;;;;;4984378;28;20034;-72
2022/09/03 09:14:02;;;;;;;3.90;1.05;;;;;;;;;;4977424;28;20039;-73
2022/09/03 09:16:31;;;;;;;4.47;1.00;;;;;;;;;;4981751;28;20034;-73
2022/09/03 09:19:00;;;;;;;3.03;1.00;;;;;;;;;;4976577;28;20030;-72
2022/09/03 09:21:45;;;;;;;2.63;0.93;;;;;;;;;;4981622;28;20038;-73
2022/09/03 09:24:25;;;;;;;2.80;0.80;;;;;;;;;;4980469;28;20097;-72
2022/09/03 09:27:02;;;;;;;1.98;0.82;;;;;;;;;;4978766;28;20042;-73
2022/09/03 09:29:31;;;;;;;4.43;1.10;;;;;;;;;;4977213;28;20395;-73
2022/09/03 09:31:57;;;;;;;2.38;1.00;;;;;;;;;;4975403;28;20037;-73
2022/09/03 09:34:23;;;;;;;3.85;1.10;;;;;;;;;;4982236;28;20029;-73
2022/09/03 09:36:53;;;;;;;2.75;1.10;;;;;;;;;;4978921;28;20476;-73
2022/09/03 09:39:19;;;;;;;2.95;1.00;;;;;;;;;;4978603;28;20034;-73
2022/09/03 09:42:21;;;;;;;4.45;0.93;;;;;;;;;;4978199;28;20444;-73
2022/09/03 09:44:47;;;;;;;2.90;0.90;;;;;;;;;;4884614;29;20131;-73
2022/09/03 09:47:16;;;;;;;3.53;1.00;;;;;;;;;;4959961;28;20416;-73
2022/09/03 09:49:45;;;;;;;2.92;0.85;;;;;;;;;;4976683;28;20416;-73
2022/09/03 09:52:12;;;;;;;3.30;0.73;;;;;;;;;;4977546;28;20038;-73
2022/09/03 09:54:39;;;;;;;2.40;0.80;;;;;;;;;;4980276;28;20836;-73
2022/09/03 09:57:07;;;;;;;2.50;0.80;;;;;;;;;;4974121;28;20375;-73
2022/09/03 09:59:36;;;;;;;2.75;0.75;;;;;;;;;;4981771;28;20085;-73
2022/09/03 10:02:06;;;;;;;2.95;0.82;;;;;;;;;;4977985;28;20593;-73
2022/09/03 10:04:32;;;;;;;2.75;0.90;;;;;;;;;;4976711;28;20035;-73
2022/09/03 10:07:18;;;;;;;2.60;0.90;;;;;;;;;;4976701;28;20041;-73
2022/09/03 10:09:44;;;;;;;3.35;0.90;;;;;;;;;;4976063;28;20035;-73
2022/09/03 10:12:13;;;;;;;3.00;0.60;;;;;;;;;;4976535;28;20061;-73
2022/09/03 10:14:41;;;;;;;2.78;0.70;;;;;;;;;;4977529;28;20037;-73
2022/09/03 10:17:21;;;;;;;3.58;1.00;;;;;;;;;;4977614;28;20039;-73
2022/09/03 10:22:47;;;;;;;2.88;0.80;;;;;;;;;;4976207;28;20062;-73
2022/09/03 10:25:15;;;;;;;3.15;0.80;;;;;;;;;;4978718;28;20034;-73
2022/09/03 10:27:43;;;;;;;2.53;0.80;;;;;;;;;;4980723;28;20050;-73
2022/09/03 10:30:10;;;;;;;4.47;1.00;;;;;;;;;;4975831;28;20026;-73
2022/09/03 10:32:42;;;;;;;3.25;1.08;;;;;;;;;;4978922;28;20555;-73
2022/09/03 10:35:18;;;;;;;5.65;0.95;;;;;;;;;;4977822;28;20037;-73
2022/09/03 10:37:44;;;;;;;4.20;1.33;;;;;;;;;;4979804;28;20041;-73
2022/09/03 10:40:13;;;;;;;4.03;1.10;;;;;;;;;;4966027;28;20039;-73
2022/09/03 10:42:45;;;;;;;2.75;1.00;;;;;;;;;;4975584;28;20348;-73
2022/09/03 10:45:17;;;;;;;3.58;1.15;;;;;;;;;;4981214;28;20030;-73
2022/09/03 10:48:03;;;;;;;1.88;1.00;;;;;;;;;;4980331;28;20849;-73
2022/09/03 10:50:47;;;;;;;2.95;1.15;;;;;;;;;;4977230;28;20457;-73
2022/09/03 10:53:20;;;;;;;3.40;1.20;;;;;;;;;;4977190;28;20186;-73
2022/09/03 10:55:56;;;;;;;2.83;1.08;;;;;;;;;;4980098;28;20042;-73
2022/09/03 10:58:22;;;;;;;5.43;1.20;;;;;;;;;;4974063;28;20053;-73
2022/09/03 11:01:08;;;;;;;2.88;1.02;;;;;;;;;;4976228;28;20074;-73
2022/09/03 11:03:34;;;;;;;2.35;1.10;;;;;;;;;;4974406;28;20387;-73
2022/09/03 11:06:03;;;;;;;3.15;1.30;;;;;;;;;;4979892;28;20040;-73
2022/09/03 11:08:37;;;;;;;3.05;1.40;;;;;;;;;;4974279;28;20396;-73
2022/09/03 11:11:09;;;;;;;2.53;1.27;;;;;;;;;;4979963;28;20084;-73
2022/09/03 11:13:35;;;;;;;;;;;;;;;;;;4976367;28;20038;-73
2022/09/03 11:16:11;;;;;;;5.03;1.73;;;;;;;;;;4981015;28;19921;-73
2022/09/03 11:18:46;;;;;;;3.58;1.40;;;;;;;;;;4978071;28;20547;-73
2022/09/03 11:21:14;;;;;;;4.07;1.50;;;;;;;;;;4976632;28;20122;-73
2022/09/03 11:23:45;;;;;;;3.50;1.48;;;;;;;;;;4976714;28;20053;-73
2022/09/03 11:26:12;;;;;;;3.60;1.50;;;;;;;;;;4974838;28;20026;-73
2022/09/03 11:28:57;;;;;;;4.95;1.52;;;;;;;;;;4978121;28;20420;-73
2022/09/03 11:31:42;;;;;;;5.07;1.42;;;;;;;;;;4978883;28;20248;-73
2022/09/03 11:34:15;;;;;;;4.90;1.40;;;;;;;;;;4977512;28;20141;-73
2022/09/03 11:36:41;;;;;;;4.90;1.20;;;;;;;;;;4978442;28;20030;-73
2022/09/03 11:39:22;;;;;;;3.47;1.30;;;;;;;;;;4977310;28;20227;-73
2022/09/03 11:41:58;;;;;;;3.70;1.30;;;;;;;;;;4977316;28;20066;-73
2022/09/03 11:44:24;;;;;;;5.47;1.20;;;;;;;;;;4975977;28;20118;-73
2022/09/03 11:46:57;;;;;;;4.03;1.20;;;;;;;;;;4975662;28;20062;-73
2022/09/03 11:49:30;;;;;;;5.18;1.15;;;;;;;;;;4974952;28;20038;-73
2022/09/03 11:52:08;;;;;;;4.00;1.17;;;;;;;;;;4974811;28;20097;-73
2022/09/03 11:54:43;;;;;;;3.83;1.67;;;;;;;;;;4978500;28;20470;-73
2022/09/03 11:57:12;;;;;;;5.78;1.40;;;;;;;;;;4979388;28;20053;-73
2022/09/03 11:59:39;;;;;;;7.15;1.65;;;;;;;;;;4973375;28;20097;-73
2022/09/03 12:02:18;;;;;;;2.83;1.20;;;;;;;;;;4976189;28;20472;-73
2022/09/03 12:04:52;;;;;;;3.95;1.52;;;;;;;;;;4978249;28;20384;-73
2022/09/03 12:07:37;;;;;;;5.38;1.40;;;;;;;;;;4973421;28;20046;-73
2022/09/03 12:10:12;;;;;;;4.40;1.30;;;;;;;;;;4976376;28;20034;-73
2022/09/03 12:12:42;;;;;;;4.43;1.52;;;;;;;;;;4979106;28;20081;-73
2022/09/03 12:15:22;;;;;;;3.90;1.40;;;;;;;;;;4976212;28;20063;-73
2022/09/03 12:18:17;;;;;;;3.65;1.33;;;;;;;;;;4977342;28;20041;-73
2022/09/03 12:20:36;;;;;;;5.90;1.67;;;;;;;;;;4978975;28;20030;-73
2022/09/03 12:23:03;;;;;;;2.83;1.35;;;;;;;;;;4979076;28;20376;-73
2022/09/03 12:25:29;;;;;;;3.33;1.33;;;;;;;;;;4977641;28;20041;-73
2022/09/03 12:27:55;;;;;;;4.35;1.40;;;;;;;;;;4977227;28;20476;-73
2022/09/03 12:30:23;;;;;;;3.38;1.13;;;;;;;;;;4975275;28;20039;-73
2022/09/03 12:32:50;;;;;;;4.20;1.33;;;;;;;;;;4977043;28;20062;-73
2022/09/03 12:35:18;;;;;;;3.97;1.60;;;;;;;;;;4975714;28;20062;-73
2022/09/03 12:37:44;;;;;;;4.80;1.50;;;;;;;;;;4977123;28;20871;-73
2022/09/03 12:40:18;;;;;;;4.15;1.63;;;;;;;;;;4981359;28;20109;-73
2022/09/03 12:42:44;;;;;;;6.25;1.90;;;;;;;;;;4982460;28;20089;-73
2022/09/03 12:45:14;;;;;;;3.28;1.30;;;;;;;;;;4978339;28;20035;-73
2022/09/03 12:47:40;;;;;;;4.10;1.75;;;;;;;;;;4981647;28;20062;-73
2022/09/03 12:50:08;;;;;;;4.28;1.58;;;;;;;;;;4981554;28;20030;-73
2022/09/03 12:52:36;;;;;;;4.72;1.52;;;;;;;;;;4977500;28;20031;-73
2022/09/03 12:55:29;;;;;;;4.65;1.70;;;;;;;;;;4979522;28;20026;-73
2022/09/03 12:58:01;;;;;;;7.05;2.00;;;;;;;;;;4976227;28;20051;-73
2022/09/03 13:00:28;;;;;;;6.25;1.60;;;;;;;;;;4977380;28;20034;-73
2022/09/03 13:02:54;;;;;;;7.45;1.80;;;;;;;;;;4980359;28;20038;-73
2022/09/03 13:05:21;;;;;;;5.35;1.83;;;;;;;;;;4978893;28;21150;-73
2022/09/03 13:07:51;;;;;;;5.13;1.70;;;;;;;;;;4977187;28;20133;-73
2022/09/03 13:10:24;;;;;;;4.55;1.58;;;;;;;;;;4978904;28;20343;-73
2022/09/03 13:12:50;;;;;;;7.15;1.90;;;;;;;;;;4978761;28;20480;-73
2022/09/03 13:15:18;;;;;;;3.95;1.45;;;;;;;;;;4978651;28;20464;-73
2022/09/03 13:17:47;;;;;;;5.10;1.58;;;;;;;;;;4980050;28;20061;-73
2022/09/03 13:20:32;;;;;;;3.67;1.52;;;;;;;;;;4980912;28;20034;-73
2022/09/03 13:23:17;;;;;;;4.07;1.40;;;;;;;;;;4977859;28;20069;-73
2022/09/03 13:25:55;;;;;;;4.03;1.48;;;;;;;;;;4981537;28;20038;-73
2022/09/03 13:28:39;;;;;;;3.10;1.30;;;;;;;;;;4977641;28;20694;-73
2022/09/03 13:31:25;;;;;;;5.18;1.70;;;;;;;;;;4980902;28;20030;-73
2022/09/03 13:33:55;;;;;;;3.58;1.73;;;;;;;;;;4981360;28;20084;-73
2022/09/03 13:36:24;;;;;;;3.78;1.73;;;;;;;;;;4980391;28;20026;-73
2022/09/03 13:39:04;;;;;;;4.20;1.60;;;;;;;;;;4975759;28;20050;-73
2022/09/03 13:41:43;;;;;;;4.57;1.52;;;;;;;;;;4985127;28;20023;-73
2022/09/03 13:44:18;;;;;;;5.57;1.83;;;;;;;;;;4981855;28;20039;-73
2022/09/03 13:46:55;;;;;;;5.47;1.63;;;;;;;;;;4979311;28;20054;-73
2022/09/03 13:52:21;;;;;;;3.67;1.65;;;;;;;;;;4980377;28;20233;-73
2022/09/03 13:54:51;;;;;;;6.60;1.70;;;;;;;;;;4977687;28;20037;-73
2022/09/03 13:57:33;;;;;;;3.13;1.40;;;;;;;;;;4976960;28;20491;-73
2022/09/03 14:00:05;;;;;;;8.60;1.70;;;;;;;;;;4978192;28;20072;-73
2022/09/03 14:02:31;;;;;;;;;;;;;;;;;;4979626;28;20492;-73
2022/09/03 14:04:57;;;;;;;5.05;1.83;;;;;;;;;;4975235;28;19921;-73
2022/09/03 14:07:34;;;;;;;5.45;1.90;;;;;;;;;;4981512;28;20042;-73
2022/09/03 14:10:05;;;;;;;4.85;1.60;;;;;;;;;;4979081;28;20035;-73
2022/09/03 14:12:41;;;;;;;2.92;1.27;;;;;;;;;;4981261;28;20109;-73
2022/09/03 14:15:28;;;;;;;6.72;2.03;;;;;;;;;;4977032;28;20034;-73
2022/09/03 14:18:02;;;;;;;3.88;1.50;;;;;;;;;;4978477;28;20026;-73
2022/09/03 14:20:30;;;;;;;5.50;1.88;;;;;;;;;;4978425;28;20053;-73
2022/09/03 14:22:59;;;;;;;5.90;1.70;;;;;;;;;;4980026;28;20050;-73
2022/09/03 14:25:26;;;;;;;4.25;1.52;;;;;;;;;;4977298;28;20061;-73
2022/09/03 14:27:53;;;;;;;5.47;1.90;;;;;;;;;;4975438;28;20468;-73
2022/09/03 14:30:18;;;;;;;3.17;1.60;;;;;;;;;;4978259;28;20110;-73
2022/09/03 14:32:44;;;;;;;3.60;1.48;;;;;;;;;;4976959;28;20039;-73
2022/09/03 14:35:13;;;;;;;3.47;1.65;;;;;;;;;;4976369;28;20440;-73
2022/09/03 14:38:07;;;;;;;4.55;1.65;;;;;;;;;;4974285;28;20109;-73
2022/09/03 14:40:43;;;;;;;6.57;2.05;;;;;;;;;;4976922;28;20038;-73
2022/09/03 14:43:28;;;;;;;4.57;1.58;;;;;;;;;;4975853;28;20042;-73
2022/09/03 14:46:06;;;;;;;3.97;1.40;;;;;;;;;;4977354;28;20073;-73
2022/09/03 14:48:50;;;;;;;3.40;1.40;;;;;;;;;;4983587;28;20116;-73
2022/09/03 14:51:16;;;;;;;4.70;1.73;;;;;;;;;;4979861;28;20144;-73
2022/09/03 14:53:49;;;;;;;4.18;1.48;;;;;;;;;;4977044;28;20430;-73
2022/09/03 14:56:25;;;;;;;4.75;1.40;;;;;;;;;;4977321;28;20072;-73
2022/09/03 14:59:00;;;;;;;4.80;1.55;;;;;;;;;;4977270;28;20090;-73
2022/09/03 15:01:32;;;;;;;4.68;1.75;;;;;;;;;;4975428;28;20527;-73
2022/09/03 15:04:01;;;;;;;6.05;1.98;;;;;;;;;;4979783;28;20034;-73
2022/09/03 15:06:33;;;;;;;3.83;1.50;;;;;;;;;;4980468;28;20496;-73
2022/09/03 15:09:02;;;;;;;4.65;1.55;;;;;;;;;;4977171;28;20034;-73